createdAt,value
2023-02-18T00:00:36.167Z,94641.69
2023-02-18T00:03:09.355Z,94628.19
2023-02-18T00:05:56.171Z,94621.44
2023-02-18T00:08:29.282Z,94626.50
2023-02-18T00:11:17.182Z,94629.03
2023-02-18T00:13:50.288Z,94628.19
2023-02-18T00:16:38.181Z,94633.25
2023-02-18T00:19:13.340Z,94618.91
2023-02-18T00:22:00.200Z,94613.81
2023-02-18T00:24:40.182Z,94619.75
2023-02-18T00:27:34.179Z,94625.66
2023-02-18T00:30:21.205Z,94631.56
2023-02-18T00:33:01.188Z,94616.34
2023-02-18T00:35:55.196Z,94621.44
2023-02-18T00:38:42.189Z,94637.44
2023-02-18T00:41:22.212Z,94623.13
2023-02-18T00:44:16.205Z,94618.03
2023-02-18T00:47:03.192Z,94625.66
2023-02-18T00:49:36.336Z,94630.72
2023-02-18T00:52:23.186Z,94632.38
2023-02-18T00:54:56.315Z,94637.47
2023-02-18T00:57:43.193Z,94628.19
2023-02-18T01:00:24.285Z,94626.50
2023-02-18T01:03:18.204Z,94630.72
2023-02-18T01:06:05.393Z,94630.72
2023-02-18T01:08:38.419Z,94630.72
2023-02-18T01:11:25.217Z,94625.66
2023-02-18T01:13:58.309Z,94631.53
2023-02-18T01:16:45.226Z,94638.31
2023-02-18T01:19:25.254Z,94634.94
2023-02-18T01:22:13.229Z,94628.19
2023-02-18T01:24:46.551Z,94632.41
2023-02-18T01:27:33.218Z,94632.41
2023-02-18T01:30:06.396Z,94622.25
2023-02-18T01:32:53.243Z,94621.41
2023-02-18T01:35:27.383Z,94621.38
2023-02-18T01:38:15.342Z,94626.41
2023-02-18T01:40:56.340Z,94601.03
2023-02-18T01:43:44.227Z,94618.69
2023-02-18T01:46:35.326Z,94608.56
2023-02-18T01:49:34.177Z,94606.00
2023-02-18T01:52:25.209Z,94610.25
2023-02-18T01:55:02.323Z,94606.00
2023-02-18T01:57:49.219Z,94591.63
2023-02-18T02:00:25.333Z,94595.00
2023-02-18T02:03:19.227Z,94600.94
2023-02-18T02:06:06.580Z,94591.69
2023-02-18T02:08:47.238Z,94618.72
2023-02-18T02:11:40.210Z,94619.59
2023-02-18T02:14:30.316Z,94612.00
2023-02-18T02:17:17.218Z,94613.63
2023-02-18T02:20:35.336Z,94610.19
2023-02-18T02:23:57.248Z,94592.44
2023-02-18T02:26:52.321Z,94606.78
2023-02-18T02:30:16.297Z,94595.78
2023-02-18T02:33:09.233Z,94592.44
2023-02-18T02:36:17.241Z,94601.63
2023-02-18T02:39:12.248Z,94596.56
2023-02-18T02:42:16.237Z,94606.75
2023-02-18T02:45:22.378Z,94626.19
2023-02-18T02:48:33.229Z,94649.88
2023-02-18T02:51:39.271Z,94654.03
2023-02-18T02:54:32.300Z,94664.16
2023-02-18T02:57:31.405Z,94670.03
2023-02-18T03:00:20.265Z,94680.16
2023-02-18T03:03:03.678Z,94677.59
2023-02-18T03:06:21.248Z,94671.72
2023-02-18T03:09:28.249Z,94676.81
2023-02-18T03:12:34.251Z,94690.44
2023-02-18T03:15:27.251Z,94692.97
2023-02-18T03:18:13.366Z,94682.00
2023-02-18T03:21:05.273Z,94689.66
2023-02-18T03:23:53.277Z,94664.34
2023-02-18T03:26:43.263Z,94682.94
2023-02-18T03:29:26.268Z,94682.97
2023-02-18T03:32:23.290Z,94679.56
2023-02-18T03:35:19.267Z,94694.75
2023-02-18T03:38:07.261Z,94716.75
2023-02-18T03:40:54.277Z,94695.59
2023-02-18T03:43:27.383Z,94671.06
2023-02-18T03:46:14.300Z,94649.91
2023-02-18T03:48:47.382Z,94655.03
2023-02-18T03:51:34.302Z,94652.53
2023-02-18T03:54:07.410Z,94668.56
2023-02-18T03:56:54.320Z,94675.28
2023-02-18T03:59:34.284Z,94660.09
2023-02-18T04:02:28.282Z,94670.28
2023-02-18T04:05:22.275Z,94657.59
2023-02-18T04:08:16.253Z,94657.63
2023-02-18T04:11:03.323Z,94654.25
2023-02-18T04:13:36.362Z,94658.50
2023-02-18T04:16:23.373Z,94677.94
2023-02-18T04:18:56.370Z,94670.34
2023-02-18T04:21:43.264Z,94699.06
2023-02-18T04:24:16.393Z,94699.94
2023-02-18T04:27:03.268Z,94674.56
2023-02-18T04:29:36.392Z,94687.22
2023-02-18T04:32:23.303Z,94700.75
2023-02-18T04:35:03.273Z,94695.69
2023-02-18T04:37:57.287Z,94701.59
2023-02-18T04:40:44.273Z,94688.06
2023-02-18T04:43:17.379Z,94688.94
2023-02-18T04:46:04.325Z,94699.88
2023-02-18T04:48:37.426Z,94715.09
2023-02-18T04:51:24.290Z,94700.72
2023-02-18T04:53:57.376Z,94695.66
2023-02-18T04:56:44.297Z,94699.88
2023-02-18T04:59:18.391Z,94706.63
2023-02-18T05:02:05.320Z,94713.38
2023-02-18T05:04:38.399Z,94712.50
2023-02-18T05:07:25.287Z,94710.00
2023-02-18T05:09:58.430Z,94713.38
2023-02-18T05:12:45.296Z,94708.31
2023-02-18T05:15:25.317Z,94715.94
2023-02-18T05:18:12.293Z,94719.28
2023-02-18T05:20:45.393Z,94719.31
2023-02-18T05:23:32.317Z,94729.44
2023-02-18T05:26:05.403Z,94738.75
2023-02-18T05:28:52.333Z,94732.00
2023-02-18T05:31:32.405Z,94732.00
2023-02-18T05:34:19.321Z,94745.53
2023-02-18T05:36:59.304Z,94744.69
2023-02-18T05:39:47.295Z,94754.81
2023-02-18T05:42:27.319Z,94759.91
2023-02-18T05:45:21.261Z,94762.41
2023-02-18T05:48:08.334Z,94793.69
2023-02-18T05:50:41.682Z,94762.41
2023-02-18T05:53:28.328Z,94774.22
2023-02-18T05:56:01.421Z,94778.47
2023-02-18T05:58:48.328Z,94767.47
2023-02-18T06:01:28.345Z,94767.50
2023-02-18T06:04:22.315Z,94771.72
2023-02-18T06:07:16.373Z,94765.78
2023-02-18T06:10:10.316Z,94759.03
2023-02-18T06:12:57.341Z,94761.59
2023-02-18T06:15:30.477Z,94779.31
2023-02-18T06:18:17.309Z,94773.41
2023-02-18T06:20:50.435Z,94779.31
2023-02-18T06:23:37.332Z,94802.13
2023-02-18T06:26:10.655Z,94774.28
2023-02-18T06:28:57.336Z,94796.22
2023-02-18T06:31:37.397Z,94802.97
2023-02-18T06:34:31.327Z,94801.28
2023-02-18T06:37:18.337Z,94815.66
2023-02-18T06:39:51.451Z,94802.97
2023-02-18T06:42:38.327Z,94797.03
2023-02-18T06:45:11.560Z,94791.94
2023-02-18T06:47:58.335Z,94800.41
2023-02-18T06:50:31.425Z,94799.59
2023-02-18T06:53:19.347Z,94801.28
2023-02-18T06:55:59.330Z,94787.75
2023-02-18T06:58:46.343Z,94797.03
2023-02-18T07:01:26.345Z,94799.56
2023-02-18T07:04:13.335Z,94813.09
2023-02-18T07:06:53.346Z,94808.91
2023-02-18T07:09:40.329Z,94799.56
2023-02-18T07:12:20.360Z,94825.75
2023-02-18T07:15:14.340Z,94827.47
2023-02-18T07:18:01.369Z,94816.44
2023-02-18T07:20:37.438Z,94834.19
2023-02-18T07:23:24.336Z,94822.34
2023-02-18T07:25:57.443Z,94843.50
2023-02-18T07:28:44.346Z,94857.03
2023-02-18T07:31:18.319Z,94834.16
2023-02-18T07:34:05.351Z,94833.28
2023-02-18T07:36:38.560Z,94825.63
2023-02-18T07:39:27.366Z,94835.78
2023-02-18T07:42:03.531Z,94851.88
2023-02-18T07:44:50.381Z,94853.53
2023-02-18T07:47:24.499Z,94830.66
2023-02-18T07:50:12.381Z,94840.00
2023-02-18T07:52:45.536Z,94837.47
2023-02-18T07:55:52.341Z,94832.41
2023-02-18T07:58:32.360Z,94844.25
2023-02-18T08:01:28.361Z,94848.44
2023-02-18T08:04:15.440Z,94839.94
2023-02-18T08:06:51.626Z,94844.19
2023-02-18T08:09:38.357Z,94855.16
2023-02-18T08:12:11.556Z,94842.41
2023-02-18T08:14:58.369Z,94840.72
2023-02-18T08:17:31.471Z,94831.34
2023-02-18T08:20:18.422Z,94859.22
2023-02-18T08:22:51.458Z,94855.00
2023-02-18T08:25:39.386Z,94834.69
2023-02-18T08:28:15.450Z,94839.78
2023-02-18T08:31:02.478Z,94823.69
2023-02-18T08:33:43.386Z,94853.31
2023-02-18T08:36:30.390Z,94843.97
2023-02-18T08:39:04.551Z,94837.16
2023-02-18T08:41:52.391Z,94847.34
2023-02-18T08:44:25.487Z,94829.47
2023-02-18T08:48:17.401Z,94849.75
2023-02-18T08:50:05.516Z,94823.50
2023-02-18T08:52:52.390Z,94846.38
2023-02-18T08:55:26.952Z,94850.56
2023-02-18T08:58:13.408Z,94843.75
2023-02-18T09:00:47.539Z,94841.19
2023-02-18T09:03:41.428Z,94840.25
2023-02-18T09:06:35.397Z,94837.69
2023-02-18T09:09:24.413Z,94852.19
2023-02-18T09:12:04.392Z,94843.66
2023-02-18T09:15:01.400Z,94838.50
2023-02-18T09:17:55.401Z,94834.13
2023-02-18T09:20:42.395Z,94842.50
2023-02-18T09:23:16.396Z,94849.34
2023-02-18T09:26:04.389Z,94853.63
2023-02-18T09:28:37.540Z,94869.63
2023-02-18T09:31:27.559Z,94852.44
2023-02-18T09:34:06.540Z,94834.31
2023-02-18T09:36:53.402Z,94860.38
2023-02-18T09:39:26.835Z,94861.88
2023-02-18T09:42:26.404Z,94871.53
2023-02-18T09:45:11.395Z,94884.47
2023-02-18T09:47:58.417Z,94880.31
2023-02-18T09:50:47.411Z,94867.72
2023-02-18T09:53:34.392Z,94876.25
2023-02-18T09:56:08.535Z,94856.78
2023-02-18T09:58:56.395Z,94853.41
2023-02-18T10:01:42.599Z,94863.53
2023-02-18T10:04:43.417Z,94834.69
2023-02-18T10:07:48.418Z,94819.41
2023-02-18T10:10:46.413Z,94832.94
2023-02-18T10:13:27.533Z,94818.34
2023-02-18T10:16:15.490Z,94797.13
2023-02-18T10:18:51.634Z,94805.63
2023-02-18T10:21:42.440Z,94806.44
2023-02-18T10:24:24.519Z,94805.44
2023-02-18T10:27:13.445Z,94788.38
2023-02-18T10:29:46.548Z,94792.53
2023-02-18T10:32:46.487Z,94791.56
2023-02-18T10:35:36.432Z,94782.09
2023-02-18T10:38:55.424Z,94781.94
2023-02-18T10:41:55.431Z,94771.78
2023-02-18T10:44:57.444Z,94771.75
2023-02-18T10:48:01.569Z,94767.50
2023-02-18T10:50:50.430Z,94765.00
2023-02-18T10:53:41.845Z,94757.56
2023-02-18T10:56:48.145Z,94734.56
2023-02-18T10:59:30.540Z,94737.09
2023-02-18T11:02:24.432Z,94735.44
2023-02-18T11:04:57.746Z,94753.16
2023-02-18T11:07:45.452Z,94753.22
2023-02-18T11:10:29.525Z,94744.69
2023-02-18T11:13:19.460Z,94734.47
2023-02-18T11:16:12.591Z,94735.25
2023-02-18T11:18:59.452Z,94742.94
2023-02-18T11:21:49.456Z,94739.56
2023-02-18T11:24:36.439Z,94746.47
2023-02-18T11:27:15.533Z,94746.47
2023-02-18T11:30:12.563Z,94749.09
2023-02-18T11:32:45.562Z,94752.59
2023-02-18T11:35:35.467Z,94731.44
2023-02-18T11:38:12.567Z,94727.94
2023-02-18T11:41:18.456Z,94721.13
2023-02-18T11:44:04.449Z,94712.66
2023-02-18T11:47:15.456Z,94711.06
2023-02-18T11:50:31.450Z,94701.69
2023-02-18T11:53:45.465Z,94694.09
2023-02-18T11:56:35.452Z,94698.25
2023-02-18T11:59:11.563Z,94691.38
2023-02-18T12:02:24.470Z,94672.69
2023-02-18T12:05:20.696Z,94680.41
2023-02-18T12:08:14.467Z,94686.41
2023-02-18T12:11:00.482Z,94690.69
2023-02-18T12:14:09.466Z,94698.47
2023-02-18T12:17:15.454Z,94685.88
2023-02-18T12:20:09.480Z,94696.16
2023-02-18T12:22:51.553Z,94698.78
2023-02-18T12:25:41.489Z,94687.75
2023-02-18T12:29:04.475Z,94697.09
2023-02-18T12:32:07.531Z,94689.44
2023-02-18T12:35:06.476Z,94681.81
2023-02-18T12:38:02.603Z,94674.25
2023-02-18T12:41:59.492Z,94678.56
2023-02-18T12:44:51.487Z,94671.03
2023-02-18T12:48:05.495Z,94668.53
2023-02-18T12:51:12.497Z,94672.81
2023-02-18T12:54:07.497Z,94671.16
2023-02-18T12:56:57.499Z,94662.63
2023-02-18T13:00:22.504Z,94660.09
2023-02-18T13:03:53.518Z,94647.44
2023-02-18T13:07:12.493Z,94649.97
2023-02-18T13:10:35.525Z,94657.59
2023-02-18T13:13:32.503Z,94664.34
2023-02-18T13:16:18.576Z,94656.72
2023-02-18T13:19:40.497Z,94658.44
2023-02-18T13:22:30.536Z,94661.81
2023-02-18T13:25:06.592Z,94660.94
2023-02-18T13:28:17.517Z,94658.44
2023-02-18T13:31:27.769Z,94650.06
2023-02-18T13:34:46.487Z,94644.97
2023-02-18T13:37:49.522Z,94643.28
2023-02-18T13:40:37.505Z,94621.25
2023-02-18T13:43:34.500Z,94607.72
2023-02-18T13:46:26.506Z,94605.16
2023-02-18T13:49:10.674Z,94603.47
2023-02-18T13:52:00.514Z,94592.44
2023-02-18T13:54:40.611Z,94589.91
2023-02-18T13:57:32.509Z,94581.38
2023-02-18T14:00:17.532Z,94583.09
2023-02-18T14:03:08.631Z,94595.88
2023-02-18T14:05:55.519Z,94588.25
2023-02-18T14:08:43.518Z,94587.41
2023-02-18T14:11:19.620Z,94581.50
2023-02-18T14:14:06.525Z,94580.63
2023-02-18T14:17:27.528Z,94563.75
2023-02-18T14:20:21.520Z,94552.75
2023-02-18T14:23:15.525Z,94551.09
2023-02-18T14:26:19.528Z,94560.44
2023-02-18T14:29:21.530Z,94548.56
2023-02-18T14:32:01.883Z,94548.53
2023-02-18T14:35:09.566Z,94555.41
2023-02-18T14:38:18.553Z,94551.16
2023-02-18T14:41:21.545Z,94530.84
2023-02-18T14:44:56.529Z,94531.75
2023-02-18T14:47:35.707Z,94524.22
2023-02-18T14:50:26.533Z,94504.78
2023-02-18T14:53:10.524Z,94503.16
2023-02-18T14:56:06.543Z,94488.03
2023-02-18T14:59:08.534Z,94485.53
2023-02-18T15:02:02.543Z,94486.47
2023-02-18T15:04:57.552Z,94474.59
2023-02-18T15:07:44.579Z,94470.31
2023-02-18T15:10:28.536Z,94467.78
2023-02-18T15:13:30.601Z,94451.78
2023-02-18T15:16:29.591Z,94455.09
2023-02-18T15:19:16.546Z,94452.63
2023-02-18T15:22:11.553Z,94445.81
2023-02-18T15:25:01.563Z,94437.31
2023-02-18T15:27:44.562Z,94422.94
2023-02-18T15:30:45.544Z,94436.56
2023-02-18T15:33:34.559Z,94432.41
2023-02-18T15:36:20.554Z,94429.91
2023-02-18T15:39:14.526Z,94418.00
2023-02-18T15:42:09.557Z,94426.44
2023-02-18T15:44:50.546Z,94413.84
2023-02-18T15:47:38.559Z,94417.25
2023-02-18T15:50:19.551Z,94407.13
2023-02-18T15:53:20.582Z,94396.09
2023-02-18T15:56:24.556Z,94398.69
2023-02-18T15:59:03.703Z,94394.50
2023-02-18T16:01:55.716Z,94393.72
2023-02-18T16:04:31.698Z,94384.50
2023-02-18T16:07:37.578Z,94381.91
2023-02-18T16:10:23.574Z,94380.28
2023-02-18T16:13:12.574Z,94384.50
2023-02-18T16:15:54.587Z,94382.81
2023-02-18T16:18:55.588Z,94376.97
2023-02-18T16:21:44.574Z,94374.50
2023-02-18T16:24:57.571Z,94370.34
2023-02-18T16:28:19.571Z,94360.25
2023-02-18T16:31:06.580Z,94378.84
2023-02-18T16:33:39.753Z,94368.78
2023-02-18T16:36:29.568Z,94362.88
2023-02-18T16:39:04.548Z,94356.16
2023-02-18T16:41:51.593Z,94357.84
2023-02-18T16:44:24.773Z,94351.13
2023-02-18T16:47:12.584Z,94359.56
2023-02-18T16:49:47.712Z,94343.47
2023-02-18T16:52:37.600Z,94372.22
2023-02-18T16:55:30.583Z,94340.97
2023-02-18T16:58:24.601Z,94367.16
2023-02-18T17:01:11.638Z,94346.00
2023-02-18T17:03:45.269Z,94362.94
2023-02-18T17:06:32.586Z,94350.28
2023-02-18T17:09:06.683Z,94356.25
2023-02-18T17:11:55.602Z,94344.44
2023-02-18T17:14:29.701Z,94356.34
2023-02-18T17:17:20.615Z,94355.56
2023-02-18T17:19:56.650Z,94344.56
2023-02-18T17:22:43.601Z,94336.19
2023-02-18T17:25:21.036Z,94342.97
2023-02-18T17:28:07.579Z,94344.75
2023-02-18T17:30:48.787Z,94341.38
2023-02-18T17:33:35.610Z,94343.13
2023-02-18T17:36:09.031Z,94342.34
2023-02-18T17:38:55.609Z,94339.84
2023-02-18T17:41:28.713Z,94327.16
2023-02-18T17:44:28.613Z,94327.16
2023-02-18T17:47:01.787Z,94305.22
2023-02-18T17:49:49.742Z,94328.91
2023-02-18T17:52:36.302Z,94328.94
2023-02-18T17:55:26.631Z,94325.59
2023-02-18T17:58:00.777Z,94343.34
2023-02-18T18:00:54.637Z,94335.75
2023-02-18T18:03:35.623Z,94355.19
2023-02-18T18:06:31.594Z,94348.38
2023-02-18T18:09:21.622Z,94346.66
2023-02-18T18:12:01.617Z,94332.22
2023-02-18T18:14:55.566Z,94336.34
2023-02-18T18:17:42.626Z,94352.41
2023-02-18T18:20:17.864Z,94342.25
2023-02-18T18:23:05.632Z,94348.97
2023-02-18T18:26:11.768Z,94361.63
2023-02-18T18:28:59.644Z,94357.44
2023-02-18T18:31:39.683Z,94343.00
2023-02-18T18:34:36.694Z,94343.72
2023-02-18T18:37:30.629Z,94354.72
2023-02-18T18:40:17.640Z,94338.53
2023-02-18T18:42:57.682Z,94324.16
2023-02-18T18:45:51.674Z,94341.91
2023-02-18T18:48:38.717Z,94339.41
2023-02-18T18:51:15.918Z,94342.78
2023-02-18T18:54:02.628Z,94344.44
2023-02-18T18:56:37.865Z,94332.53
2023-02-18T18:59:24.639Z,94329.16
2023-02-18T19:01:58.780Z,94348.56
2023-02-18T19:04:52.638Z,94339.25
2023-02-18T19:07:46.697Z,94323.25
2023-02-18T19:10:35.667Z,94328.34
2023-02-18T19:13:15.817Z,94346.09
2023-02-18T19:16:16.018Z,94342.72
2023-02-18T19:18:55.653Z,94343.59
2023-02-18T19:21:49.649Z,94332.66
2023-02-18T19:24:36.634Z,94346.19
2023-02-18T19:27:16.696Z,94352.97
2023-02-18T19:30:10.716Z,94358.09
2023-02-18T19:33:06.696Z,94379.25
2023-02-18T19:36:00.692Z,94366.66
2023-02-18T19:38:47.675Z,94392.84
2023-02-18T19:41:29.668Z,94395.34
2023-02-18T19:44:16.701Z,94388.56
2023-02-18T19:46:56.698Z,94397.84
2023-02-18T19:49:50.696Z,94397.88
2023-02-18T19:52:37.647Z,94392.81
2023-02-18T19:55:18.702Z,94403.84
2023-02-18T19:58:05.675Z,94421.56
2023-02-18T20:00:40.501Z,94416.47
2023-02-18T20:03:27.668Z,94428.34
2023-02-18T20:06:02.627Z,94402.13
2023-02-18T20:08:49.719Z,94414.81
2023-02-18T20:11:29.687Z,94416.56
2023-02-18T20:14:23.723Z,94424.16
2023-02-18T20:17:12.701Z,94419.94
2023-02-18T20:19:45.852Z,94426.63
2023-02-18T20:22:32.694Z,94430.91
2023-02-18T20:25:13.668Z,94424.97
2023-02-18T20:28:07.760Z,94422.38
2023-02-18T20:30:54.805Z,94421.47
2023-02-18T20:33:34.697Z,94427.41
2023-02-18T20:36:28.695Z,94442.63
2023-02-18T20:39:24.698Z,94445.16
2023-02-18T20:42:16.568Z,94432.50
2023-02-18T20:44:51.852Z,94438.44
2023-02-18T20:47:39.728Z,94424.94
2023-02-18T20:50:20.700Z,94432.53
2023-02-18T20:53:14.951Z,94434.28
2023-02-18T20:56:01.738Z,94441.06
2023-02-18T20:58:34.856Z,94434.19
2023-02-18T21:01:23.748Z,94447.72
2023-02-18T21:03:56.804Z,94470.59
2023-02-18T21:06:51.827Z,94461.31
2023-02-18T21:09:45.723Z,94459.63
2023-02-18T21:12:39.788Z,94452.06
2023-02-18T21:15:34.699Z,94462.22
2023-02-18T21:18:22.704Z,94461.41
2023-02-18T21:20:55.818Z,94485.06
2023-02-18T21:23:43.729Z,94471.56
2023-02-18T21:26:20.906Z,94482.53
2023-02-18T21:29:11.714Z,94480.03
2023-02-18T21:31:47.926Z,94485.94
2023-02-18T21:34:34.704Z,94490.16
2023-02-18T21:37:08.993Z,94479.16
2023-02-18T21:39:55.716Z,94481.69
2023-02-18T21:42:28.833Z,94478.28
2023-02-18T21:45:15.725Z,94485.03
2023-02-18T21:47:50.837Z,94485.91
2023-02-18T21:50:37.716Z,94490.13
2023-02-18T21:53:10.984Z,94506.19
2023-02-18T21:56:03.644Z,94504.47
2023-02-18T21:58:36.850Z,94498.53
2023-02-18T22:01:23.731Z,94506.13
2023-02-18T22:04:03.772Z,94509.53
2023-02-18T22:06:58.699Z,94499.41
2023-02-18T22:09:48.270Z,94502.00
2023-02-18T22:12:22.836Z,94496.88
2023-02-18T22:15:10.702Z,94499.38
2023-02-18T22:17:43.823Z,94495.19
2023-02-18T22:20:30.717Z,94497.72
2023-02-18T22:23:10.730Z,94496.03
2023-02-18T22:25:58.721Z,94498.59
2023-02-18T22:28:38.715Z,94511.25
2023-02-18T22:31:28.515Z,94511.28
2023-02-18T22:34:09.732Z,94514.72
2023-02-18T22:37:03.781Z,94529.09
2023-02-18T22:39:50.711Z,94535.00
2023-02-18T22:42:23.837Z,94528.19
2023-02-18T22:45:10.723Z,94536.63
2023-02-18T22:47:50.742Z,94540.00
2023-02-18T22:50:37.795Z,94542.53
2023-02-18T22:53:10.833Z,94540.03
2023-02-18T22:55:57.769Z,94551.88
2023-02-18T22:58:30.867Z,94556.97
2023-02-18T23:01:30.393Z,94565.44
2023-02-18T23:04:06.009Z,94573.06
2023-02-18T23:06:54.543Z,94572.25
2023-02-18T23:09:31.861Z,94579.00
2023-02-18T23:12:18.718Z,94562.09
2023-02-18T23:14:51.918Z,94569.69
2023-02-18T23:17:38.846Z,94571.38
2023-02-18T23:20:19.801Z,94567.16
2023-02-18T23:23:13.786Z,94577.31
2023-02-18T23:26:07.846Z,94592.53
2023-02-18T23:28:56.816Z,94573.97
2023-02-18T23:31:39.839Z,94594.22
2023-02-18T23:34:26.742Z,94595.09
2023-02-18T23:36:59.913Z,94581.56
2023-02-18T23:39:46.732Z,94589.22
2023-02-18T23:42:19.896Z,94590.06
2023-02-18T23:45:08.622Z,94584.16
2023-02-18T23:47:48.809Z,94600.19
2023-02-18T23:50:42.734Z,94596.00
2023-02-18T23:53:33.892Z,94599.38
2023-02-18T23:56:43.860Z,94597.69
2023-02-18T23:59:37.812Z,94587.56
